createdAt,value
2022-10-19T00:04:08.840Z,101300.47
2022-10-19T00:09:10.335Z,101297.28
2022-10-19T00:14:11.670Z,101298.69
2022-10-19T00:19:14.304Z,101303.88
2022-10-19T00:24:13.043Z,101304.25
2022-10-19T00:29:13.765Z,101316.00
2022-10-19T00:34:12.738Z,101310.38
2022-10-19T00:39:14.651Z,101315.00
2022-10-19T00:44:13.434Z,101308.47
2022-10-19T00:49:28.756Z,101317.41
2022-10-19T00:54:28.011Z,101316.69
2022-10-19T00:59:31.763Z,101309.34
2022-10-19T01:04:33.949Z,101314.84
2022-10-19T01:09:32.690Z,101313.59
2022-10-19T01:14:59.094Z,101311.63
2022-10-19T01:20:19.668Z,101315.78
2022-10-19T01:25:37.276Z,101303.34
2022-10-19T01:30:45.235Z,101297.22
2022-10-19T01:35:43.913Z,101298.34
2022-10-19T01:40:59.266Z,101289.69
2022-10-19T01:46:21.149Z,101292.19
2022-10-19T01:51:27.054Z,101293.66
2022-10-19T01:56:28.359Z,101298.94
2022-10-19T02:01:33.152Z,101299.59
2022-10-19T02:06:32.106Z,101308.31
2022-10-19T02:11:31.791Z,101308.69
2022-10-19T02:16:38.680Z,101294.91
2022-10-19T02:21:37.460Z,101298.19
2022-10-19T02:26:36.215Z,101297.19
2022-10-19T02:32:25.007Z,101295.28
2022-10-19T02:37:25.581Z,101289.94
2022-10-19T02:42:51.155Z,101298.53
2022-10-19T02:47:55.355Z,101303.31
2022-10-19T02:52:54.114Z,101302.19
2022-10-19T02:57:53.801Z,101295.16
2022-10-19T03:02:52.689Z,101302.03
2022-10-19T03:07:51.479Z,101295.72
2022-10-19T03:12:50.193Z,101299.88
2022-10-19T03:17:53.058Z,101292.22
2022-10-19T03:27:55.650Z,101284.69
2022-10-19T03:32:54.340Z,101282.38
2022-10-19T03:37:53.106Z,101284.34
2022-10-19T03:42:51.824Z,101286.50
2022-10-19T03:47:51.406Z,101297.34
2022-10-19T03:52:50.244Z,101305.75
2022-10-19T03:57:48.996Z,101305.81
2022-10-19T04:02:47.732Z,101301.41
2022-10-19T04:07:46.400Z,101305.97
2022-10-19T04:12:45.078Z,101311.16
2022-10-19T04:17:45.693Z,101312.13
2022-10-19T04:22:47.535Z,101323.28
2022-10-19T04:27:46.258Z,101312.44
2022-10-19T04:32:45.158Z,101321.72
2022-10-19T04:37:44.205Z,101312.66
2022-10-19T04:42:43.149Z,101314.19
2022-10-19T04:47:41.855Z,101327.56
2022-10-19T04:52:40.513Z,101317.41
2022-10-19T04:57:39.170Z,101330.63
2022-10-19T05:02:43.074Z,101328.16
2022-10-19T05:07:41.769Z,101328.56
2022-10-19T05:12:40.417Z,101335.91
2022-10-19T05:17:39.236Z,101329.91
2022-10-19T05:22:39.111Z,101328.00
2022-10-19T05:27:37.783Z,101332.50
2022-10-19T05:32:36.548Z,101336.59
2022-10-19T05:37:35.443Z,101335.66
2022-10-19T05:42:36.684Z,101346.22
2022-10-19T05:47:38.577Z,101343.16
2022-10-19T05:52:40.441Z,101349.88
2022-10-19T05:57:39.207Z,101345.22
2022-10-19T06:02:37.901Z,101347.16
2022-10-19T06:07:36.981Z,101359.28
2022-10-19T06:12:35.788Z,101364.75
2022-10-19T06:17:34.892Z,101363.88
2022-10-19T06:22:33.746Z,101361.13
2022-10-19T06:27:32.847Z,101360.03
2022-10-19T06:32:34.267Z,101364.41
2022-10-19T06:37:33.208Z,101363.06
2022-10-19T06:42:32.718Z,101370.03
2022-10-19T06:47:33.343Z,101376.56
2022-10-19T06:52:33.716Z,101372.47
2022-10-19T06:57:33.084Z,101370.56
2022-10-19T07:02:33.509Z,101377.72
2022-10-19T07:07:32.522Z,101379.31
2022-10-19T07:12:31.523Z,101380.91
2022-10-19T07:17:30.343Z,101383.75
2022-10-19T07:22:28.976Z,101389.81
2022-10-19T07:27:28.086Z,101389.28
2022-10-19T07:32:29.175Z,101395.75
2022-10-19T07:37:27.878Z,101404.66
2022-10-19T07:42:30.463Z,101413.72
2022-10-19T07:47:29.199Z,101408.44
2022-10-19T07:52:28.543Z,101406.72
2022-10-19T07:57:28.740Z,101410.63
2022-10-19T08:02:34.898Z,101409.56
2022-10-19T08:07:46.074Z,101412.75
2022-10-19T08:12:44.789Z,101421.50
2022-10-19T08:17:43.438Z,101426.31
2022-10-19T08:22:45.169Z,101427.56
2022-10-19T08:27:43.871Z,101432.91
2022-10-19T08:32:42.610Z,101431.81
2022-10-19T08:37:45.294Z,101440.94
2022-10-19T08:42:55.562Z,101435.38
2022-10-19T08:48:19.754Z,101435.69
2022-10-19T08:53:37.339Z,101437.63
2022-10-19T08:58:45.140Z,101427.69
2022-10-19T09:04:02.073Z,101426.22
2022-10-19T09:09:00.982Z,101429.41
2022-10-19T09:14:18.342Z,101429.69
2022-10-19T09:19:30.859Z,101433.03
2022-10-19T09:24:44.449Z,101424.38
2022-10-19T09:29:52.622Z,101425.72
2022-10-19T09:34:54.357Z,101421.41
2022-10-19T09:39:55.497Z,101432.28
2022-10-19T09:44:55.429Z,101428.25
2022-10-19T09:50:08.026Z,101426.13
2022-10-19T09:55:25.283Z,101414.44
2022-10-19T10:00:31.175Z,101434.56
2022-10-19T10:05:36.117Z,101424.03
2022-10-19T10:10:42.491Z,101436.19
2022-10-19T10:15:48.289Z,101425.09
2022-10-19T10:21:14.162Z,101432.81
2022-10-19T10:26:19.998Z,101436.56
2022-10-19T10:31:30.408Z,101428.50
2022-10-19T10:36:32.004Z,101433.06
2022-10-19T10:41:37.485Z,101428.09
2022-10-19T10:46:46.684Z,101435.84
2022-10-19T10:51:50.667Z,101448.41
2022-10-19T10:57:06.279Z,101437.56
2022-10-19T11:02:42.887Z,101435.78
2022-10-19T11:07:45.656Z,101439.88
2022-10-19T11:12:49.651Z,101448.09
2022-10-19T11:17:57.022Z,101442.22
2022-10-19T11:23:07.416Z,101439.94
2022-10-19T11:28:29.343Z,101439.84
2022-10-19T11:33:49.447Z,101435.16
2022-10-19T11:39:27.461Z,101439.41
2022-10-19T11:44:26.185Z,101435.31
2022-10-19T11:50:03.016Z,101445.75
2022-10-19T11:55:14.958Z,101438.91
2022-10-19T12:00:39.062Z,101431.66
2022-10-19T12:05:52.435Z,101425.50
2022-10-19T12:11:21.036Z,101403.81
2022-10-19T12:16:24.491Z,101402.13
2022-10-19T12:21:29.419Z,101402.59
2022-10-19T12:26:32.744Z,101405.22
2022-10-19T12:31:32.641Z,101408.63
2022-10-19T12:36:43.543Z,101405.22
2022-10-19T12:41:53.788Z,101407.56
2022-10-19T12:47:22.717Z,101397.53
2022-10-19T12:52:49.073Z,101402.06
2022-10-19T12:57:56.559Z,101395.97
2022-10-19T13:03:03.252Z,101398.53
2022-10-19T13:08:06.977Z,101395.25
2022-10-19T13:13:46.518Z,101391.69
2022-10-19T13:19:14.158Z,101385.91
2022-10-19T13:24:25.108Z,101382.00
2022-10-19T13:29:39.422Z,101373.97
2022-10-19T13:34:38.789Z,101374.78
2022-10-19T13:39:39.382Z,101375.66
2022-10-19T13:45:04.684Z,101372.03
2022-10-19T13:50:26.172Z,101378.97
2022-10-19T13:55:47.168Z,101365.44
2022-10-19T14:00:55.279Z,101375.63
2022-10-19T14:06:17.403Z,101376.75
2022-10-19T14:11:25.682Z,101362.41
2022-10-19T14:16:24.482Z,101361.09
2022-10-19T14:21:34.701Z,101358.41
2022-10-19T14:26:34.703Z,101350.38
2022-10-19T14:31:37.292Z,101349.53
2022-10-19T14:36:39.257Z,101349.22
2022-10-19T14:41:38.140Z,101351.50
2022-10-19T14:46:37.389Z,101348.53
2022-10-19T14:51:45.328Z,101355.06
2022-10-19T14:56:56.069Z,101346.88
2022-10-19T15:01:58.244Z,101354.09
2022-10-19T15:07:00.237Z,101339.97
2022-10-19T15:12:08.371Z,101343.03
2022-10-19T15:17:32.975Z,101337.72
2022-10-19T15:22:35.430Z,101333.88
2022-10-19T15:27:45.488Z,101334.91
2022-10-19T15:32:49.848Z,101337.44
2022-10-19T15:37:50.130Z,101346.75
2022-10-19T15:42:49.057Z,101337.44
2022-10-19T15:48:15.479Z,101335.41
2022-10-19T15:53:18.383Z,101335.09
2022-10-19T15:58:17.942Z,101325.22
2022-10-19T16:03:17.347Z,101331.03
2022-10-19T16:08:16.362Z,101322.63
2022-10-19T16:13:15.197Z,101329.50
2022-10-19T16:18:16.640Z,101337.94
2022-10-19T16:23:15.495Z,101334.00
2022-10-19T16:28:14.307Z,101332.97
2022-10-19T16:33:13.076Z,101333.03
2022-10-19T16:38:12.071Z,101338.28
2022-10-19T16:43:10.901Z,101342.44
2022-10-19T16:48:12.114Z,101346.88
2022-10-19T16:53:11.241Z,101337.31
2022-10-19T16:58:09.911Z,101338.94
2022-10-19T17:03:08.745Z,101351.88
2022-10-19T17:08:09.181Z,101357.16
2022-10-19T17:13:07.931Z,101354.47
2022-10-19T17:18:06.707Z,101361.44
2022-10-19T17:23:05.552Z,101368.00
2022-10-19T17:28:04.213Z,101372.13
2022-10-19T17:33:03.101Z,101369.09
2022-10-19T17:38:01.827Z,101378.06
2022-10-19T17:43:00.508Z,101369.78
2022-10-19T17:47:59.145Z,101377.06
2022-10-19T17:52:58.187Z,101378.13
2022-10-19T17:57:56.822Z,101390.59
2022-10-19T18:02:55.552Z,101392.84
2022-10-19T18:07:54.444Z,101393.69
2022-10-19T18:12:53.098Z,101388.41
2022-10-19T18:17:51.714Z,101399.66
2022-10-19T18:22:50.402Z,101402.38
2022-10-19T18:27:49.192Z,101401.72
2022-10-19T18:32:51.033Z,101396.63
2022-10-19T18:37:49.814Z,101397.88
2022-10-19T18:42:48.480Z,101385.03
2022-10-19T18:47:47.182Z,101387.38
2022-10-19T18:52:45.880Z,101384.91
2022-10-19T18:57:44.597Z,101385.97
2022-10-19T19:02:46.981Z,101377.28
2022-10-19T19:07:46.627Z,101376.72
2022-10-19T19:12:45.339Z,101380.16
2022-10-19T19:17:44.168Z,101380.81
2022-10-19T19:22:42.822Z,101371.66
2022-10-19T19:27:41.461Z,101367.56
2022-10-19T19:32:41.105Z,101371.97
2022-10-19T19:37:39.874Z,101374.16
2022-10-19T19:42:38.515Z,101375.66
2022-10-19T19:47:37.466Z,101380.59
2022-10-19T19:52:40.252Z,101378.44
2022-10-19T19:57:39.258Z,101385.63
2022-10-19T20:02:39.284Z,101390.38
2022-10-19T20:07:38.169Z,101392.28
2022-10-19T20:12:37.003Z,101389.63
2022-10-19T20:17:36.011Z,101403.91
2022-10-19T20:22:35.226Z,101401.66
2022-10-19T20:27:37.389Z,101410.59
2022-10-19T20:32:36.516Z,101407.16
2022-10-19T20:37:35.570Z,101406.88
2022-10-19T20:42:34.420Z,101406.03
2022-10-19T20:47:33.400Z,101406.16
2022-10-19T20:52:33.778Z,101393.88
2022-10-19T20:57:32.678Z,101398.78
2022-10-19T21:02:31.294Z,101403.06
2022-10-19T21:07:30.139Z,101401.59
2022-10-19T21:12:28.848Z,101406.56
2022-10-19T21:17:27.657Z,101401.03
2022-10-19T21:22:26.708Z,101402.03
2022-10-19T21:27:25.418Z,101394.44
2022-10-19T21:32:24.158Z,101397.31
2022-10-19T21:37:23.021Z,101394.72
2022-10-19T21:42:21.616Z,101384.97
2022-10-19T21:47:20.264Z,101386.59
2022-10-19T21:52:18.905Z,101382.63
2022-10-19T21:57:17.599Z,101369.50
2022-10-19T22:02:16.378Z,101362.63
2022-10-19T22:07:15.206Z,101369.25
2022-10-19T22:17:17.776Z,101357.72
2022-10-19T22:22:16.695Z,101350.94
2022-10-19T22:27:15.527Z,101346.72
2022-10-19T22:32:14.332Z,101345.13
2022-10-19T22:37:13.010Z,101342.53
2022-10-19T22:42:11.663Z,101332.44
2022-10-19T22:47:10.437Z,101334.41
2022-10-19T22:52:09.137Z,101339.13
2022-10-19T22:57:08.147Z,101339.50
2022-10-19T23:02:07.011Z,101336.25
2022-10-19T23:07:05.807Z,101324.19
2022-10-19T23:12:04.968Z,101327.91
2022-10-19T23:17:03.622Z,101330.00
2022-10-19T23:22:02.262Z,101327.53
2022-10-19T23:27:00.961Z,101312.63
2022-10-19T23:31:59.581Z,101313.09
2022-10-19T23:36:58.617Z,101318.97
2022-10-19T23:41:57.434Z,101313.19
2022-10-19T23:46:56.199Z,101316.50
2022-10-19T23:51:54.974Z,101317.50
2022-10-19T23:56:53.699Z,101318.84
